sensor_id;sensor_type;location;lat;lon;timestamp;temperature;humidity
47618;DHT22;33336;36.728;-4.414;2023-01-04T00:00:26;16.10;99.90
47618;DHT22;33336;36.728;-4.414;2023-01-04T00:05:30;16.30;99.90
47618;DHT22;33336;36.728;-4.414;2023-01-04T00:10:34;16.00;99.90
47618;DHT22;33336;36.728;-4.414;2023-01-04T00:15:37;16.00;99.90
47618;DHT22;33336;36.728;-4.414;2023-01-04T00:20:41;16.00;99.90
47618;DHT22;33336;36.728;-4.414;2023-01-04T00:25:44;16.20;99.90
47618;DHT22;33336;36.728;-4.414;2023-01-04T00:30:47;16.30;99.90
47618;DHT22;33336;36.728;-4.414;2023-01-04T00:35:51;16.40;99.90
47618;DHT22;33336;36.728;-4.414;2023-01-04T00:40:55;16.30;99.90
47618;DHT22;33336;36.728;-4.414;2023-01-04T00:45:58;16.30;99.90
47618;DHT22;33336;36.728;-4.414;2023-01-04T00:51:03;16.20;99.90
47618;DHT22;33336;36.728;-4.414;2023-01-04T00:56:06;15.90;99.90
47618;DHT22;33336;36.728;-4.414;2023-01-04T01:01:10;15.90;99.90
47618;DHT22;33336;36.728;-4.414;2023-01-04T01:06:14;15.90;99.90
47618;DHT22;33336;36.728;-4.414;2023-01-04T01:11:20;15.80;99.90
47618;DHT22;33336;36.728;-4.414;2023-01-04T01:16:24;15.60;99.90
47618;DHT22;33336;36.728;-4.414;2023-01-04T01:21:29;15.70;99.90
47618;DHT22;33336;36.728;-4.414;2023-01-04T01:26:33;15.70;99.90
47618;DHT22;33336;36.728;-4.414;2023-01-04T01:31:36;15.40;99.90
47618;DHT22;33336;36.728;-4.414;2023-01-04T01:36:40;15.60;99.90
47618;DHT22;33336;36.728;-4.414;2023-01-04T01:41:43;15.60;99.90
47618;DHT22;33336;36.728;-4.414;2023-01-04T01:46:47;15.70;99.90
47618;DHT22;33336;36.728;-4.414;2023-01-04T01:51:53;15.80;99.90
47618;DHT22;33336;36.728;-4.414;2023-01-04T01:56:59;15.90;99.90
47618;DHT22;33336;36.728;-4.414;2023-01-04T02:02:03;16.00;99.90
47618;DHT22;33336;36.728;-4.414;2023-01-04T02:07:08;15.70;99.90
47618;DHT22;33336;36.728;-4.414;2023-01-04T02:12:12;15.70;99.90
47618;DHT22;33336;36.728;-4.414;2023-01-04T02:17:23;15.50;99.90
47618;DHT22;33336;36.728;-4.414;2023-01-04T02:22:58;15.60;99.90
47618;DHT22;33336;36.728;-4.414;2023-01-04T02:28:09;15.60;99.90
47618;DHT22;33336;36.728;-4.414;2023-01-04T02:33:31;15.70;99.90
47618;DHT22;33336;36.728;-4.414;2023-01-04T02:38:48;15.80;99.90
47618;DHT22;33336;36.728;-4.414;2023-01-04T02:43:59;16.10;99.90
47618;DHT22;33336;36.728;-4.414;2023-01-04T02:49:22;15.70;99.90
47618;DHT22;33336;36.728;-4.414;2023-01-04T02:54:44;15.70;99.90
47618;DHT22;33336;36.728;-4.414;2023-01-04T03:05:42;16.00;99.90
47618;DHT22;33336;36.728;-4.414;2023-01-04T03:11:06;16.10;99.90
47618;DHT22;33336;36.728;-4.414;2023-01-04T03:16:33;16.10;99.90
47618;DHT22;33336;36.728;-4.414;2023-01-04T03:21:42;16.30;99.90
47618;DHT22;33336;36.728;-4.414;2023-01-04T03:26:48;16.40;99.90
47618;DHT22;33336;36.728;-4.414;2023-01-04T03:32:27;16.50;99.90
47618;DHT22;33336;36.728;-4.414;2023-01-04T03:37:54;16.50;99.90
47618;DHT22;33336;36.728;-4.414;2023-01-04T03:43:19;16.50;99.90
47618;DHT22;33336;36.728;-4.414;2023-01-04T03:48:44;16.30;99.90
47618;DHT22;33336;36.728;-4.414;2023-01-04T03:53:54;16.30;99.90
47618;DHT22;33336;36.728;-4.414;2023-01-04T03:58:58;16.30;99.90
47618;DHT22;33336;36.728;-4.414;2023-01-04T04:04:02;16.30;99.90
47618;DHT22;33336;36.728;-4.414;2023-01-04T04:09:24;16.30;99.90
47618;DHT22;33336;36.728;-4.414;2023-01-04T04:14:28;16.20;99.90
47618;DHT22;33336;36.728;-4.414;2023-01-04T04:19:31;16.10;99.90
47618;DHT22;33336;36.728;-4.414;2023-01-04T04:24:35;16.10;99.90
47618;DHT22;33336;36.728;-4.414;2023-01-04T04:29:38;16.10;99.90
47618;DHT22;33336;36.728;-4.414;2023-01-04T04:34:41;16.00;99.90
47618;DHT22;33336;36.728;-4.414;2023-01-04T04:39:45;16.00;99.90
47618;DHT22;33336;36.728;-4.414;2023-01-04T04:44:48;15.90;99.90
47618;DHT22;33336;36.728;-4.414;2023-01-04T04:49:51;15.80;99.90
47618;DHT22;33336;36.728;-4.414;2023-01-04T04:54:55;15.80;99.90
47618;DHT22;33336;36.728;-4.414;2023-01-04T04:59:58;15.90;99.90
47618;DHT22;33336;36.728;-4.414;2023-01-04T05:05:01;15.90;99.90
47618;DHT22;33336;36.728;-4.414;2023-01-04T05:10:06;15.80;99.90
47618;DHT22;33336;36.728;-4.414;2023-01-04T05:15:10;15.50;99.90
47618;DHT22;33336;36.728;-4.414;2023-01-04T05:20:13;15.40;99.90
47618;DHT22;33336;36.728;-4.414;2023-01-04T05:25:18;15.40;99.90
47618;DHT22;33336;36.728;-4.414;2023-01-04T05:30:21;15.40;99.90
47618;DHT22;33336;36.728;-4.414;2023-01-04T05:35:42;15.40;99.90
47618;DHT22;33336;36.728;-4.414;2023-01-04T05:40:47;15.50;99.90
47618;DHT22;33336;36.728;-4.414;2023-01-04T05:45:52;15.30;99.90
47618;DHT22;33336;36.728;-4.414;2023-01-04T05:50:55;15.00;99.90
47618;DHT22;33336;36.728;-4.414;2023-01-04T05:56:00;15.10;99.90
47618;DHT22;33336;36.728;-4.414;2023-01-04T06:01:02;15.20;99.90
47618;DHT22;33336;36.728;-4.414;2023-01-04T06:06:08;15.20;99.90
47618;DHT22;33336;36.728;-4.414;2023-01-04T06:11:13;15.30;99.90
47618;DHT22;33336;36.728;-4.414;2023-01-04T06:16:16;15.10;99.90
47618;DHT22;33336;36.728;-4.414;2023-01-04T06:21:19;15.10;99.90
47618;DHT22;33336;36.728;-4.414;2023-01-04T06:26:23;15.10;99.90
47618;DHT22;33336;36.728;-4.414;2023-01-04T06:31:26;15.10;99.90
47618;DHT22;33336;36.728;-4.414;2023-01-04T06:36:30;15.20;99.90
47618;DHT22;33336;36.728;-4.414;2023-01-04T06:41:35;15.20;99.90
47618;DHT22;33336;36.728;-4.414;2023-01-04T06:46:38;15.20;99.90
47618;DHT22;33336;36.728;-4.414;2023-01-04T06:51:41;15.30;99.90
47618;DHT22;33336;36.728;-4.414;2023-01-04T06:56:46;15.20;99.90
47618;DHT22;33336;36.728;-4.414;2023-01-04T07:01:49;15.40;99.90
47618;DHT22;33336;36.728;-4.414;2023-01-04T07:06:52;15.40;99.90
47618;DHT22;33336;36.728;-4.414;2023-01-04T07:11:56;15.30;99.90
47618;DHT22;33336;36.728;-4.414;2023-01-04T07:17:00;15.30;99.90
47618;DHT22;33336;36.728;-4.414;2023-01-04T07:22:03;15.30;99.90
47618;DHT22;33336;36.728;-4.414;2023-01-04T07:27:08;15.40;99.90
47618;DHT22;33336;36.728;-4.414;2023-01-04T07:32:11;15.30;99.90
47618;DHT22;33336;36.728;-4.414;2023-01-04T07:37:15;15.40;99.90
47618;DHT22;33336;36.728;-4.414;2023-01-04T07:42:19;15.50;99.90
47618;DHT22;33336;36.728;-4.414;2023-01-04T07:47:23;15.40;99.90
47618;DHT22;33336;36.728;-4.414;2023-01-04T07:52:26;15.60;99.90
47618;DHT22;33336;36.728;-4.414;2023-01-04T07:57:30;15.60;99.90
47618;DHT22;33336;36.728;-4.414;2023-01-04T08:02:33;15.60;99.90
47618;DHT22;33336;36.728;-4.414;2023-01-04T08:07:37;15.70;99.90
47618;DHT22;33336;36.728;-4.414;2023-01-04T08:12:41;15.70;99.90
47618;DHT22;33336;36.728;-4.414;2023-01-04T08:17:45;15.70;99.90
47618;DHT22;33336;36.728;-4.414;2023-01-04T08:22:48;15.80;99.90
47618;DHT22;33336;36.728;-4.414;2023-01-04T08:27:52;16.00;99.90
47618;DHT22;33336;36.728;-4.414;2023-01-04T08:32:55;15.90;99.90
47618;DHT22;33336;36.728;-4.414;2023-01-04T08:37:59;16.10;99.90
47618;DHT22;33336;36.728;-4.414;2023-01-04T08:43:03;16.20;99.90
47618;DHT22;33336;36.728;-4.414;2023-01-04T08:48:07;16.30;99.90
47618;DHT22;33336;36.728;-4.414;2023-01-04T08:53:10;16.50;99.90
47618;DHT22;33336;36.728;-4.414;2023-01-04T08:58:14;16.60;99.90
47618;DHT22;33336;36.728;-4.414;2023-01-04T09:03:17;16.60;99.90
47618;DHT22;33336;36.728;-4.414;2023-01-04T09:08:20;16.70;99.90
47618;DHT22;33336;36.728;-4.414;2023-01-04T09:13:25;16.50;99.90
47618;DHT22;33336;36.728;-4.414;2023-01-04T09:18:28;16.70;99.90
47618;DHT22;33336;36.728;-4.414;2023-01-04T09:23:31;16.80;99.90
47618;DHT22;33336;36.728;-4.414;2023-01-04T09:28:37;16.70;99.90
47618;DHT22;33336;36.728;-4.414;2023-01-04T09:33:40;16.70;99.90
47618;DHT22;33336;36.728;-4.414;2023-01-04T09:38:44;16.70;99.90
47618;DHT22;33336;36.728;-4.414;2023-01-04T09:43:50;16.80;99.90
47618;DHT22;33336;36.728;-4.414;2023-01-04T09:48:58;17.10;99.90
47618;DHT22;33336;36.728;-4.414;2023-01-04T09:54:07;17.60;99.90
47618;DHT22;33336;36.728;-4.414;2023-01-04T09:59:16;17.80;99.90
47618;DHT22;33336;36.728;-4.414;2023-01-04T10:04:23;18.00;99.90
47618;DHT22;33336;36.728;-4.414;2023-01-04T10:09:28;18.40;99.90
47618;DHT22;33336;36.728;-4.414;2023-01-04T10:14:46;18.10;99.60
47618;DHT22;33336;36.728;-4.414;2023-01-04T10:20:07;18.70;99.60
47618;DHT22;33336;36.728;-4.414;2023-01-04T10:25:26;18.90;99.30
47618;DHT22;33336;36.728;-4.414;2023-01-04T10:30:34;18.90;98.70
47618;DHT22;33336;36.728;-4.414;2023-01-04T10:35:42;19.00;97.70
47618;DHT22;33336;36.728;-4.414;2023-01-04T10:40:47;19.50;96.90
47618;DHT22;33336;36.728;-4.414;2023-01-04T10:45:58;19.60;96.30
47618;DHT22;33336;36.728;-4.414;2023-01-04T10:51:04;19.80;95.60
47618;DHT22;33336;36.728;-4.414;2023-01-04T10:56:11;20.00;95.50
47618;DHT22;33336;36.728;-4.414;2023-01-04T11:01:23;19.80;94.90
47618;DHT22;33336;36.728;-4.414;2023-01-04T11:06:30;19.60;95.30
47618;DHT22;33336;36.728;-4.414;2023-01-04T11:11:40;19.40;95.50
47618;DHT22;33336;36.728;-4.414;2023-01-04T11:16:48;19.70;96.00
47618;DHT22;33336;36.728;-4.414;2023-01-04T11:21:52;19.80;95.20
47618;DHT22;33336;36.728;-4.414;2023-01-04T11:27:03;19.60;96.70
47618;DHT22;33336;36.728;-4.414;2023-01-04T11:32:16;20.00;96.90
47618;DHT22;33336;36.728;-4.414;2023-01-04T11:37:26;20.40;96.90
47618;DHT22;33336;36.728;-4.414;2023-01-04T11:42:30;20.80;96.50
47618;DHT22;33336;36.728;-4.414;2023-01-04T11:47:34;20.90;96.20
47618;DHT22;33336;36.728;-4.414;2023-01-04T11:52:49;20.90;96.10
47618;DHT22;33336;36.728;-4.414;2023-01-04T11:58:06;20.40;95.70
47618;DHT22;33336;36.728;-4.414;2023-01-04T12:03:14;20.50;95.90
47618;DHT22;33336;36.728;-4.414;2023-01-04T12:08:28;20.30;95.50
47618;DHT22;33336;36.728;-4.414;2023-01-04T12:13:33;20.60;95.90
47618;DHT22;33336;36.728;-4.414;2023-01-04T12:18:39;20.70;95.90
47618;DHT22;33336;36.728;-4.414;2023-01-04T12:23:43;21.10;95.60
47618;DHT22;33336;36.728;-4.414;2023-01-04T12:28:48;20.80;96.20
47618;DHT22;33336;36.728;-4.414;2023-01-04T12:33:53;20.70;96.50
47618;DHT22;33336;36.728;-4.414;2023-01-04T12:39:22;21.30;96.50
47618;DHT22;33336;36.728;-4.414;2023-01-04T12:44:57;21.70;94.90
47618;DHT22;33336;36.728;-4.414;2023-01-04T12:50:05;21.60;95.60
47618;DHT22;33336;36.728;-4.414;2023-01-04T13:01:21;22.00;94.70
47618;DHT22;33336;36.728;-4.414;2023-01-04T13:06:29;21.90;94.50
47618;DHT22;33336;36.728;-4.414;2023-01-04T13:17:15;21.90;94.20
47618;DHT22;33336;36.728;-4.414;2023-01-04T13:22:25;21.90;94.20
47618;DHT22;33336;36.728;-4.414;2023-01-04T13:27:28;21.90;93.70
47618;DHT22;33336;36.728;-4.414;2023-01-04T13:32:32;22.50;94.20
47618;DHT22;33336;36.728;-4.414;2023-01-04T13:37:39;23.30;93.10
47618;DHT22;33336;36.728;-4.414;2023-01-04T13:42:45;23.80;91.50
47618;DHT22;33336;36.728;-4.414;2023-01-04T13:47:50;24.80;91.70
47618;DHT22;33336;36.728;-4.414;2023-01-04T13:52:56;25.20;90.90
47618;DHT22;33336;36.728;-4.414;2023-01-04T13:58:00;25.70;88.70
47618;DHT22;33336;36.728;-4.414;2023-01-04T14:03:11;26.00;87.80
47618;DHT22;33336;36.728;-4.414;2023-01-04T14:08:22;27.20;86.50
47618;DHT22;33336;36.728;-4.414;2023-01-04T14:13:29;26.60;85.00
47618;DHT22;33336;36.728;-4.414;2023-01-04T14:18:32;28.40;84.60
47618;DHT22;33336;36.728;-4.414;2023-01-04T14:23:36;29.00;79.30
47618;DHT22;33336;36.728;-4.414;2023-01-04T14:28:39;29.60;82.60
47618;DHT22;33336;36.728;-4.414;2023-01-04T14:33:45;31.30;80.00
47618;DHT22;33336;36.728;-4.414;2023-01-04T14:38:52;30.80;76.80
47618;DHT22;33336;36.728;-4.414;2023-01-04T14:44:08;30.20;80.50
47618;DHT22;33336;36.728;-4.414;2023-01-04T14:49:11;30.60;81.40
47618;DHT22;33336;36.728;-4.414;2023-01-04T14:54:16;31.90;77.40
47618;DHT22;33336;36.728;-4.414;2023-01-04T14:59:20;31.90;79.60
47618;DHT22;33336;36.728;-4.414;2023-01-04T15:04:25;32.40;78.50
47618;DHT22;33336;36.728;-4.414;2023-01-04T15:09:29;33.80;77.10
47618;DHT22;33336;36.728;-4.414;2023-01-04T15:14:33;34.00;76.20
47618;DHT22;33336;36.728;-4.414;2023-01-04T15:19:36;33.60;74.80
47618;DHT22;33336;36.728;-4.414;2023-01-04T15:24:41;34.60;74.20
47618;DHT22;33336;36.728;-4.414;2023-01-04T15:29:44;35.00;73.00
47618;DHT22;33336;36.728;-4.414;2023-01-04T15:34:48;35.00;73.50
47618;DHT22;33336;36.728;-4.414;2023-01-04T15:39:52;34.70;73.40
47618;DHT22;33336;36.728;-4.414;2023-01-04T15:44:56;34.00;74.20
47618;DHT22;33336;36.728;-4.414;2023-01-04T15:49:59;33.30;73.10
47618;DHT22;33336;36.728;-4.414;2023-01-04T15:55:03;34.60;72.90
47618;DHT22;33336;36.728;-4.414;2023-01-04T16:00:07;34.50;71.90
47618;DHT22;33336;36.728;-4.414;2023-01-04T16:05:10;33.70;73.70
47618;DHT22;33336;36.728;-4.414;2023-01-04T16:10:14;32.40;74.80
47618;DHT22;33336;36.728;-4.414;2023-01-04T16:15:19;32.00;73.80
47618;DHT22;33336;36.728;-4.414;2023-01-04T16:20:22;30.60;77.20
47618;DHT22;33336;36.728;-4.414;2023-01-04T16:25:26;30.50;76.20
47618;DHT22;33336;36.728;-4.414;2023-01-04T16:30:32;31.50;75.40
47618;DHT22;33336;36.728;-4.414;2023-01-04T16:35:36;31.50;74.20
47618;DHT22;33336;36.728;-4.414;2023-01-04T16:40:40;29.10;77.20
47618;DHT22;33336;36.728;-4.414;2023-01-04T16:45:43;28.30;78.90
47618;DHT22;33336;36.728;-4.414;2023-01-04T16:50:46;27.20;80.20
47618;DHT22;33336;36.728;-4.414;2023-01-04T16:55:50;26.70;81.50
47618;DHT22;33336;36.728;-4.414;2023-01-04T17:00:53;26.00;83.10
47618;DHT22;33336;36.728;-4.414;2023-01-04T17:05:57;25.30;84.40
47618;DHT22;33336;36.728;-4.414;2023-01-04T17:11:05;25.40;84.40
47618;DHT22;33336;36.728;-4.414;2023-01-04T17:16:10;24.80;85.20
47618;DHT22;33336;36.728;-4.414;2023-01-04T17:21:15;24.50;86.40
47618;DHT22;33336;36.728;-4.414;2023-01-04T17:26:23;23.90;87.60
47618;DHT22;33336;36.728;-4.414;2023-01-04T17:31:29;23.50;89.10
47618;DHT22;33336;36.728;-4.414;2023-01-04T17:36:32;23.60;89.00
47618;DHT22;33336;36.728;-4.414;2023-01-04T17:41:37;23.30;89.60
47618;DHT22;33336;36.728;-4.414;2023-01-04T17:46:41;22.90;90.40
47618;DHT22;33336;36.728;-4.414;2023-01-04T17:51:44;22.60;90.40
47618;DHT22;33336;36.728;-4.414;2023-01-04T17:56:49;22.00;91.20
47618;DHT22;33336;36.728;-4.414;2023-01-04T18:01:52;21.70;91.80
47618;DHT22;33336;36.728;-4.414;2023-01-04T18:06:54;21.50;91.70
47618;DHT22;33336;36.728;-4.414;2023-01-04T18:11:59;21.50;91.80
47618;DHT22;33336;36.728;-4.414;2023-01-04T18:17:02;21.40;91.90
47618;DHT22;33336;36.728;-4.414;2023-01-04T18:22:09;21.20;92.50
47618;DHT22;33336;36.728;-4.414;2023-01-04T18:27:14;20.90;92.50
47618;DHT22;33336;36.728;-4.414;2023-01-04T18:32:18;20.70;92.90
47618;DHT22;33336;36.728;-4.414;2023-01-04T18:37:21;20.60;93.20
47618;DHT22;33336;36.728;-4.414;2023-01-04T18:42:26;20.50;93.40
47618;DHT22;33336;36.728;-4.414;2023-01-04T18:47:29;20.30;93.50
47618;DHT22;33336;36.728;-4.414;2023-01-04T18:52:33;20.10;93.80
47618;DHT22;33336;36.728;-4.414;2023-01-04T18:57:38;20.00;94.10
47618;DHT22;33336;36.728;-4.414;2023-01-04T19:02:42;19.80;94.50
47618;DHT22;33336;36.728;-4.414;2023-01-04T19:07:44;19.70;94.40
47618;DHT22;33336;36.728;-4.414;2023-01-04T19:12:49;19.50;94.60
47618;DHT22;33336;36.728;-4.414;2023-01-04T19:17:52;19.40;94.90
47618;DHT22;33336;36.728;-4.414;2023-01-04T19:22:56;19.20;95.70
47618;DHT22;33336;36.728;-4.414;2023-01-04T19:28:00;19.00;95.80
47618;DHT22;33336;36.728;-4.414;2023-01-04T19:33:04;18.80;96.00
47618;DHT22;33336;36.728;-4.414;2023-01-04T19:38:07;18.70;96.00
47618;DHT22;33336;36.728;-4.414;2023-01-04T19:43:11;18.50;96.30
47618;DHT22;33336;36.728;-4.414;2023-01-04T19:48:16;18.40;96.80
47618;DHT22;33336;36.728;-4.414;2023-01-04T19:53:19;18.30;96.80
47618;DHT22;33336;36.728;-4.414;2023-01-04T19:58:23;18.30;96.80
47618;DHT22;33336;36.728;-4.414;2023-01-04T20:03:27;18.10;97.10
47618;DHT22;33336;36.728;-4.414;2023-01-04T20:08:29;18.10;96.80
47618;DHT22;33336;36.728;-4.414;2023-01-04T20:13:34;17.90;97.20
47618;DHT22;33336;36.728;-4.414;2023-01-04T20:18:38;17.80;97.10
47618;DHT22;33336;36.728;-4.414;2023-01-04T20:23:42;17.90;97.30
47618;DHT22;33336;36.728;-4.414;2023-01-04T20:28:46;17.70;97.70
47618;DHT22;33336;36.728;-4.414;2023-01-04T20:33:49;17.60;97.60
47618;DHT22;33336;36.728;-4.414;2023-01-04T20:38:52;17.40;98.00
47618;DHT22;33336;36.728;-4.414;2023-01-04T20:43:58;17.30;97.80
47618;DHT22;33336;36.728;-4.414;2023-01-04T20:49:01;17.30;97.60
47618;DHT22;33336;36.728;-4.414;2023-01-04T20:54:04;17.30;97.60
47618;DHT22;33336;36.728;-4.414;2023-01-04T20:59:08;17.30;97.60
47618;DHT22;33336;36.728;-4.414;2023-01-04T21:04:12;17.10;98.10
47618;DHT22;33336;36.728;-4.414;2023-01-04T21:09:17;17.00;98.00
47618;DHT22;33336;36.728;-4.414;2023-01-04T21:14:23;16.90;98.30
47618;DHT22;33336;36.728;-4.414;2023-01-04T21:19:26;16.90;98.40
47618;DHT22;33336;36.728;-4.414;2023-01-04T21:24:30;16.90;98.50
47618;DHT22;33336;36.728;-4.414;2023-01-04T21:29:35;17.00;98.30
47618;DHT22;33336;36.728;-4.414;2023-01-04T21:34:39;17.10;98.10
47618;DHT22;33336;36.728;-4.414;2023-01-04T21:39:41;16.80;98.70
47618;DHT22;33336;36.728;-4.414;2023-01-04T21:44:46;16.60;99.50
47618;DHT22;33336;36.728;-4.414;2023-01-04T21:49:49;16.60;99.70
47618;DHT22;33336;36.728;-4.414;2023-01-04T21:54:52;16.40;99.90
47618;DHT22;33336;36.728;-4.414;2023-01-04T21:59:56;16.50;99.80
47618;DHT22;33336;36.728;-4.414;2023-01-04T22:05:00;16.00;99.90
47618;DHT22;33336;36.728;-4.414;2023-01-04T22:10:03;16.40;99.80
47618;DHT22;33336;36.728;-4.414;2023-01-04T22:15:09;16.20;99.90
47618;DHT22;33336;36.728;-4.414;2023-01-04T22:20:12;16.50;99.40
47618;DHT22;33336;36.728;-4.414;2023-01-04T22:25:16;16.60;99.30
47618;DHT22;33336;36.728;-4.414;2023-01-04T22:30:20;16.70;99.40
47618;DHT22;33336;36.728;-4.414;2023-01-04T22:35:24;16.60;99.10
47618;DHT22;33336;36.728;-4.414;2023-01-04T22:40:26;16.50;99.40
47618;DHT22;33336;36.728;-4.414;2023-01-04T22:45:32;16.30;99.60
47618;DHT22;33336;36.728;-4.414;2023-01-04T22:50:37;16.20;99.80
47618;DHT22;33336;36.728;-4.414;2023-01-04T22:55:40;16.00;99.90
47618;DHT22;33336;36.728;-4.414;2023-01-04T23:00:44;16.00;99.90
47618;DHT22;33336;36.728;-4.414;2023-01-04T23:05:48;15.80;99.90
47618;DHT22;33336;36.728;-4.414;2023-01-04T23:10:50;15.60;99.90
47618;DHT22;33336;36.728;-4.414;2023-01-04T23:15:54;15.90;99.90
47618;DHT22;33336;36.728;-4.414;2023-01-04T23:20:58;16.00;99.70
47618;DHT22;33336;36.728;-4.414;2023-01-04T23:26:05;16.00;99.80
47618;DHT22;33336;36.728;-4.414;2023-01-04T23:31:12;16.00;99.90
47618;DHT22;33336;36.728;-4.414;2023-01-04T23:36:17;16.00;99.90
47618;DHT22;33336;36.728;-4.414;2023-01-04T23:41:21;16.00;99.90
47618;DHT22;33336;36.728;-4.414;2023-01-04T23:46:46;16.00;99.90
47618;DHT22;33336;36.728;-4.414;2023-01-04T23:51:52;15.90;99.90
47618;DHT22;33336;36.728;-4.414;2023-01-04T23:56:55;15.70;99.90
